Time;durP1;ratioP1;P1;durP2;ratioP2;P2;SDS_P1;SDS_P2;PMS_P1;PMS_P2;Temp;Humidity;BMP_temperature;BMP_pressure;BME280_temperature;BME280_humidity;BME280_pressure;Samples;Min_cycle;Max_cycle;Signal;HPM_P1;HPM_P2
2022/08/05 00:05:47;;;;;;;;;;;;;;;;;;;;;
2022/08/05 00:11:38;;;;;;;;;2.67;2.67;;;;;27.12;100.00;101245.53;6360890;22;28230;-93
2022/08/05 00:14:31;;;;;;;;;2.67;2.67;;;;;27.12;100.00;101243.72;6357090;22;28541;-93
2022/08/05 00:17:31;;;;;;;;;2.67;2.67;;;;;27.08;100.00;101242.13;6331540;22;28306;-93
2022/08/05 00:20:12;;;;;;;;;;;;;;;;;;;;;
2022/08/05 00:22:57;;;;;;;;;4.33;4.33;;;;;26.93;100.00;101211.22;6359871;22;54093;-94
2022/08/05 00:26:03;;;;;;;;;4.67;4.67;;;;;26.85;100.00;101207.19;6332325;22;28385;-93
2022/08/05 00:29:08;;;;;;;;;;;;;;;;;;;;;
2022/08/05 00:32:18;;;;;;;;;6.00;6.00;;;;;26.62;100.00;101168.50;6353534;22;56935;-93
2022/08/05 00:35:30;;;;;;;;;;;;;;;;;;;;;
2022/08/05 00:38:14;;;;;;;;;5.67;5.67;;;;;26.49;100.00;101168.34;6360655;22;51476;-92
2022/08/05 00:41:11;;;;;;;;;;;;;;;;;;;;;
2022/08/05 00:43:50;;;;;;;;;5.67;5.67;;;;;26.46;100.00;101173.06;6357408;22;56887;-93
2022/08/05 00:46:40;;;;;;;;;6.00;6.00;;;;;26.45;100.00;101171.34;6358385;22;28451;-92
2022/08/05 00:49:11;;;;;;;;;4.67;4.67;;;;;26.35;100.00;101160.97;6333129;22;28444;-92
2022/08/05 00:51:47;;;;;;;;;;;;;;;;;;;;;
2022/08/05 00:54:43;;;;;;;;;;;;;;;;;;;;;
2022/08/05 00:57:29;;;;;;;;;;;;;;;;;;;;;
2022/08/05 01:00:13;;;;;;;;;;;;;;;;;;;;;
2022/08/05 01:02:43;;;;;;;;;5.33;5.33;;;;;26.14;100.00;101140.38;6359921;22;56711;-93
2022/08/05 01:05:11;;;;;;;;;5.00;4.00;;;;;26.13;100.00;101152.25;6334143;22;28449;-93
2022/08/05 01:07:39;;;;;;;;;3.00;3.00;;;;;26.18;100.00;101163.75;6333191;22;28426;-92
2022/08/05 01:10:24;;;;;;;;;;;;;;;;;;;;;
2022/08/05 01:13:09;;;;;;;;;1.00;1.00;;;;;26.18;100.00;101188.22;6358059;22;58216;-93
2022/08/05 01:15:44;;;;;;;;;2.67;2.67;;;;;26.16;100.00;101198.31;6333808;22;28795;-92
2022/08/05 01:18:31;;;;;;;;;;;;;;;;;;;;;
2022/08/05 01:21:27;;;;;;;;;2.67;2.67;;;;;26.26;100.00;101232.22;6357233;22;52852;-92
2022/08/05 01:24:13;;;;;;;;;3.00;3.00;;;;;26.30;100.00;101239.25;6360026;22;28837;-93
2022/08/05 01:27:20;;;;;;;;;3.00;3.00;;;;;26.40;100.00;101237.78;6333849;22;29789;-92
2022/08/05 01:30:00;;;;;;;;;3.00;3.00;;;;;26.40;100.00;101256.84;6359925;22;28399;-93
2022/08/05 01:36:13;;;;;;;;;3.00;3.00;;;;;26.48;100.00;101263.72;6342670;22;28517;-93
2022/08/05 01:45:53;;;;;;;;;;;;;;;;;;;;;
2022/08/05 01:48:53;;;;;;;;;;;;;;;;;;;;;
2022/08/05 01:51:52;;;;;;;;;;;;;;;;;;;;;
2022/08/05 01:58:29;;;;;;;;;4.00;4.00;;;;;26.39;100.00;101276.84;6347427;22;28492;-93
2022/08/05 02:01:24;;;;;;;;;;;;;;;;;;;;;
2022/08/05 02:04:01;;;;;;;;;4.00;3.00;;;;;26.30;100.00;101266.47;6360146;22;55819;-93
2022/08/05 02:07:08;;;;;;;;;;;;;;;;;;;;;
2022/08/05 02:09:51;;;;;;;;;;;;;;;;;;;;;
2022/08/05 02:12:52;;;;;;;;;4.00;4.00;;;;;26.16;100.00;101258.19;6357886;22;57324;-92
2022/08/05 02:15:38;;;;;;;;;3.00;3.00;;;;;26.13;100.00;101255.63;6332933;22;28493;-93
2022/08/05 02:18:19;;;;;;;;;4.33;4.33;;;;;26.08;100.00;101254.97;6331530;22;28468;-94
2022/08/05 02:21:08;;;;;;;;;4.00;4.00;;;;;26.04;100.00;101260.56;6356661;22;28274;-93
2022/08/05 02:24:03;;;;;;;;;5.00;3.67;;;;;25.99;100.00;101253.66;6359546;22;28602;-93
2022/08/05 02:26:56;;;;;;;;;4.67;4.67;;;;;25.92;100.00;101244.88;6332310;22;28381;-94
2022/08/05 02:29:44;;;;;;;;;6.33;4.00;;;;;25.88;100.00;101238.75;6359496;22;28878;-93
2022/08/05 02:32:43;;;;;;;;;;;;;;;;;;;;;
2022/08/05 02:35:35;;;;;;;;;4.00;4.00;;;;;25.74;100.00;101248.59;6359337;22;57034;-93
2022/08/05 02:41:18;;;;;;;;;3.00;3.00;;;;;25.74;100.00;101256.75;6308123;22;28511;-93
2022/08/05 02:44:03;;;;;;;;;2.00;2.00;;;;;25.75;100.00;101266.66;6358491;22;28350;-92
2022/08/05 02:46:50;;;;;;;;;2.33;2.33;;;;;25.80;100.00;101278.16;6333313;22;29632;-93
2022/08/05 02:49:31;;;;;;;;;2.00;2.00;;;;;25.82;100.00;101270.84;6331177;22;28299;-92
2022/08/05 02:51:59;;;;;;;;;2.00;2.00;;;;;25.84;100.00;101263.47;6359981;22;28518;-93
2022/08/05 02:54:38;;;;;;;;;2.33;2.33;;;;;25.85;100.00;101248.91;6331966;22;28501;-93
2022/08/05 02:57:33;;;;;;;;;3.00;3.00;;;;;25.83;100.00;101261.69;6331316;22;29630;-92
2022/08/05 03:00:37;;;;;;;;;;;;;;;;;;;;;
2022/08/05 03:03:07;;;;;;;;;3.33;3.33;;;;;25.81;100.00;101269.94;6357787;22;55382;-92
2022/08/05 03:05:59;;;;;;;;;3.00;3.00;;;;;25.83;100.00;101267.13;6328779;22;28346;-93
2022/08/05 03:08:44;;;;;;;;;;;;;;;;;;;;;
2022/08/05 03:12:09;;;;;;;;;;;;;;;;;;;;;
2022/08/05 03:14:52;;;;;;;;;;;;;;;;;;;;;
2022/08/05 03:17:30;;;;;;;;;3.00;3.00;;;;;25.74;100.00;101259.44;6327590;22;54113;-93
2022/08/05 03:20:09;;;;;;;;;1.00;1.00;;;;;25.68;100.00;101263.41;6325825;22;30001;-92
2022/08/05 03:22:51;;;;;;;;;;;;;;;;;;;;;
2022/08/05 03:25:47;;;;;;;;;4.67;4.67;;;;;25.66;100.00;101259.84;6327187;22;55926;-93
2022/08/05 03:28:50;;;;;;;;;4.00;4.00;;;;;25.59;100.00;101263.88;6324597;22;28278;-93
2022/08/05 03:34:38;;;;;;;;;;;;;;;;;;;;;
2022/08/05 03:37:24;;;;;;;;;5.00;5.00;;;;;25.56;100.00;101245.88;6330123;22;53752;-92
2022/08/05 03:40:45;;;;;;;;;4.00;4.00;;;;;25.51;100.00;101239.81;6327414;22;28448;-93
2022/08/05 03:43:29;;;;;;;;;5.00;5.00;;;;;25.47;100.00;101244.50;6328824;22;29708;-92
2022/08/05 03:45:56;;;;;;;;;4.67;4.67;;;;;25.36;100.00;101246.03;6327747;22;28353;-92
2022/08/05 03:48:55;;;;;;;;;7.00;7.00;;;;;25.25;100.00;101233.84;6353982;22;28340;-93
2022/08/05 03:51:40;;;;;;;;;7.00;7.00;;;;;25.14;100.00;101241.66;6326863;22;28468;-92
2022/08/05 03:54:35;;;;;;;;;8.67;8.67;;;;;25.08;100.00;101231.97;6327131;22;28335;-93
2022/08/05 03:57:08;;;;;;;;;9.00;9.00;;;;;24.90;100.00;101224.72;6329894;22;28428;-92
2022/08/05 04:00:04;;;;;;;;;;;;;;;;;;;;;
2022/08/05 04:03:01;;;;;;;;;;;;;;;;;;;;;
2022/08/05 04:05:58;;;;;;;;;6.33;6.33;;;;;24.63;100.00;101226.00;6329812;22;57510;-93
2022/08/05 04:08:36;;;;;;;;;4.67;4.67;;;;;24.59;100.00;101237.94;6326355;22;28506;-93
2022/08/05 04:11:11;;;;;;;;;3.00;3.00;;;;;24.52;100.00;101239.19;6301506;22;28465;-92
2022/08/05 04:13:43;;;;;;;;;5.00;5.00;;;;;24.47;100.00;101238.50;6300737;22;28523;-93
2022/08/05 04:16:15;;;;;;;;;4.00;4.00;;;;;24.43;100.00;101242.34;6326032;22;28540;-92
2022/08/05 04:19:07;;;;;;;;;5.33;5.33;;;;;24.36;100.00;101240.84;6301132;22;28799;-93
2022/08/05 04:21:42;;;;;;;;;;;;;;;;;;;;;
2022/08/05 04:24:30;;;;;;;;;7.67;7.67;;;;;24.23;100.00;101248.69;6327170;22;51748;-92
2022/08/05 04:27:36;;;;;;;;;5.00;5.00;;;;;24.24;100.00;101254.03;6327833;22;30923;-92
2022/08/05 04:30:23;;;;;;;;;3.67;3.67;;;;;24.17;100.00;101255.25;6328270;22;29268;-92
2022/08/05 04:33:09;;;;;;;;;3.33;3.33;;;;;24.09;100.00;101263.75;6301861;22;28324;-93
2022/08/05 04:35:48;;;;;;;;;;;;;;;;;;;;;
2022/08/05 04:38:13;;;;;;;;;4.00;4.00;;;;;24.13;100.00;101259.06;6329244;22;58144;-93
2022/08/05 04:40:42;;;;;;;;;2.33;2.33;;;;;24.13;100.00;101261.78;6301185;22;28505;-92
2022/08/05 04:43:21;;;;;;;;;3.67;3.67;;;;;24.05;100.00;101261.25;6298074;22;28323;-93
2022/08/05 04:46:03;;;;;;;;;4.33;4.33;;;;;24.04;100.00;101264.91;6301118;22;28524;-92
2022/08/05 04:48:54;;;;;;;;;4.00;4.00;;;;;24.09;100.00;101279.16;6301378;22;30792;-92
2022/08/05 04:51:31;;;;;;;;;4.33;4.33;;;;;24.13;100.00;101266.31;6327446;22;28339;-93
2022/08/05 04:54:33;;;;;;;;;4.00;3.67;;;;;24.45;100.00;101267.56;6330369;22;28195;-92
2022/08/05 04:57:05;;;;;;;;;;;;;;;;;;;;;
2022/08/05 04:59:42;;;;;;;;;4.67;4.67;;;;;25.23;100.00;101267.44;6329173;22;58147;-93
2022/08/05 05:02:15;;;;;;;;;3.67;3.67;;;;;25.42;100.00;101267.47;6328477;22;28369;-93
2022/08/05 05:05:02;;;;;;;;;;;;;;;;;;;;;
2022/08/05 05:07:58;;;;;;;;;4.00;4.00;;;;;27.30;100.00;101254.50;6332368;22;52064;-93
2022/08/05 05:10:47;;;;;;;;;5.33;5.33;;;;;28.26;100.00;101254.19;6357897;22;30706;-93
2022/08/05 05:13:27;;;;;;;;;4.67;4.67;;;;;28.81;100.00;101253.38;6332141;22;28449;-93
2022/08/05 05:16:17;;;;;;;;;;;;;;;;;;;;;
2022/08/05 05:19:30;;;;;;;;;7.33;7.33;;;;;29.95;100.00;101262.09;6356801;22;51441;-93
2022/08/05 05:22:29;;;;;;;;;;;;;;;;;;;;;
2022/08/05 05:28:45;;;;;;;;;;;;;;;;;;;;;
2022/08/05 05:34:37;;;;;;;;;4.00;4.00;;;;;32.87;100.00;101281.16;6263007;22;29217;-93
2022/08/05 05:43:48;;;;;;;;;;;;;;;;;;;;;
2022/08/05 05:46:32;;;;;;;;;;;;;;;;;;;;;
2022/08/05 05:52:18;;;;;;;;;7.33;7.33;;;;;35.16;100.00;101299.84;6303519;22;28453;-93
2022/08/05 15:25:06;;;;;;;;;0.00;0.00;;;;;31.42;50.34;101821.16;6273691;22;29737;-96
2022/08/05 15:27:34;;;;;;;;;1.00;0.33;;;;;31.38;49.00;101818.63;6292760;22;28608;-94
2022/08/05 15:30:32;;;;;;;;;;;;;;;;;;;;;
2022/08/05 15:33:05;;;;;;;;;0.67;0.67;;;;;31.11;49.81;101834.19;6258924;22;55983;-94
2022/08/05 15:35:43;;;;;;;;;0.00;0.00;;;;;30.98;49.82;101815.81;6263889;22;28525;-92
2022/08/05 15:38:25;;;;;;;;;0.00;0.00;;;;;30.76;49.74;101823.66;6270065;22;28451;-93
2022/08/05 15:41:02;;;;;;;;;0.00;0.00;;;;;30.65;50.41;101825.25;6272935;22;29318;-93
2022/08/05 15:43:57;;;;;;;;;0.00;0.00;;;;;30.58;51.12;101834.84;6330634;22;28231;-95
2022/08/05 15:46:22;;;;;;;;;0.00;0.00;;;;;30.51;51.13;101838.06;6301200;22;28719;-91
2022/08/05 15:48:54;;;;;;;;;0.00;0.00;;;;;30.41;51.20;101837.78;6331481;22;28389;-93
2022/08/05 15:51:30;;;;;;;;;1.00;1.00;;;;;30.40;51.57;101836.00;6331533;22;29386;-94
2022/08/05 15:54:24;;;;;;;;;1.00;1.00;;;;;30.34;51.39;101848.19;6330856;22;28270;-94
2022/08/05 15:57:19;;;;;;;;;0.67;0.67;;;;;30.29;49.99;101840.28;6329813;22;28371;-94
2022/08/05 16:03:19;;;;;;;;;11.00;11.00;;;;;29.94;48.99;101851.59;6192042;22;28465;-91
2022/08/05 16:12:39;;;;;;;;;3.00;3.00;;;;;29.78;50.16;101856.19;6331100;22;28342;-92
2022/08/05 16:15:05;;;;;;;;;1.00;1.00;;;;;29.76;49.79;101858.13;6300652;22;28718;-92
2022/08/05 16:17:58;;;;;;;;;0.67;0.67;;;;;29.65;49.14;101860.63;6330636;22;28366;-96
2022/08/05 16:23:00;;;;;;;;;0.00;0.00;;;;;29.66;48.89;101862.41;6325646;22;50048;-93
2022/08/05 16:25:27;;;;;;;;;0.00;0.00;;;;;29.65;49.28;101871.56;6328164;22;29670;-93
2022/08/05 16:27:53;;;;;;;;;0.00;0.00;;;;;29.54;48.11;101859.44;6303221;22;28584;-93
2022/08/05 16:30:18;;;;;;;;;0.00;0.00;;;;;29.48;48.56;101868.00;6331701;22;28219;-93
2022/08/05 16:32:47;;;;;;;;;0.00;0.00;;;;;29.50;48.19;101868.78;6302498;22;28304;-93
2022/08/05 16:35:12;;;;;;;;;0.00;0.00;;;;;29.18;47.24;101882.44;6302320;22;29679;-93
2022/08/05 16:37:39;;;;;;;;;0.00;0.00;;;;;29.05;47.54;101873.19;6331141;22;28282;-93
2022/08/05 16:40:05;;;;;;;;;0.00;0.00;;;;;28.90;46.89;101889.47;6331444;22;28402;-93
2022/08/05 16:42:33;;;;;;;;;0.00;0.00;;;;;28.84;47.28;101883.47;6331509;22;28473;-93
2022/08/05 16:44:58;;;;;;;;;0.00;0.00;;;;;28.81;47.68;101891.84;6301826;22;30448;-91
2022/08/05 16:48:04;;;;;;;;;0.00;0.00;;;;;28.76;48.22;101894.84;6332332;22;27840;-94
2022/08/05 17:40:31;;;;;;;;;1.00;0.00;;;;;27.62;52.44;101955.31;6276223;22;29944;-94
2022/08/05 17:44:13;;;;;;;;;;;;;;;;;;;;;
2022/08/05 17:46:38;;;;;;;;;0.00;0.00;;;;;27.50;53.24;101956.81;6231372;22;54865;-92
2022/08/05 17:49:32;;;;;;;;;0.00;0.00;;;;;27.48;53.21;101954.16;6235279;22;28544;-96
2022/08/05 17:56:15;;;;;;;;;;;;;;;;;;;;;
2022/08/05 20:11:01;;;;;;;;;1.00;1.00;;;;;23.40;75.47;102117.38;6003340;23;28605;-94
2022/08/05 20:20:05;;;;;;;;;0.00;0.00;;;;;23.31;78.18;102121.22;6026191;23;28414;-93
2022/08/05 22:28:15;;;;;;;;;1.00;1.00;;;;;21.83;100.00;102210.47;6329925;22;28372;-94
2022/08/05 22:31:42;;;;;;;;;;;;;;;;;;;;;
2022/08/05 23:03:07;;;;;;;;;;;;;;;;;;;;;
